sensor_id;sensor_type;location;lat;lon;timestamp;P1;durP1;ratioP1;P2;durP2;ratioP2
74793;SDS011;63320;50.768;6.724;2023-04-06T00:02:15;15.68;;;7.28;;
74793;SDS011;63320;50.768;6.724;2023-04-06T00:04:41;16.42;;;7.20;;
74793;SDS011;63320;50.768;6.724;2023-04-06T00:07:07;13.52;;;6.40;;
74793;SDS011;63320;50.768;6.724;2023-04-06T00:09:33;14.35;;;7.15;;
74793;SDS011;63320;50.768;6.724;2023-04-06T00:11:58;14.48;;;7.25;;
74793;SDS011;63320;50.768;6.724;2023-04-06T00:14:24;16.20;;;7.28;;
74793;SDS011;63320;50.768;6.724;2023-04-06T00:16:49;12.98;;;7.00;;
74793;SDS011;63320;50.768;6.724;2023-04-06T00:19:14;14.93;;;7.35;;
74793;SDS011;63320;50.768;6.724;2023-04-06T00:21:40;16.05;;;7.05;;
74793;SDS011;63320;50.768;6.724;2023-04-06T00:24:07;14.77;;;7.13;;
74793;SDS011;63320;50.768;6.724;2023-04-06T00:26:32;15.32;;;7.40;;
74793;SDS011;63320;50.768;6.724;2023-04-06T00:28:57;14.25;;;7.43;;
74793;SDS011;63320;50.768;6.724;2023-04-06T00:31:23;16.27;;;7.22;;
74793;SDS011;63320;50.768;6.724;2023-04-06T00:33:48;16.35;;;7.15;;
74793;SDS011;63320;50.768;6.724;2023-04-06T00:36:14;16.23;;;7.10;;
74793;SDS011;63320;50.768;6.724;2023-04-06T00:38:39;14.80;;;7.60;;
74793;SDS011;63320;50.768;6.724;2023-04-06T00:41:06;14.93;;;7.45;;
74793;SDS011;63320;50.768;6.724;2023-04-06T00:43:31;15.40;;;7.07;;
74793;SDS011;63320;50.768;6.724;2023-04-06T00:45:57;15.48;;;7.47;;
74793;SDS011;63320;50.768;6.724;2023-04-06T00:48:22;16.33;;;7.25;;
74793;SDS011;63320;50.768;6.724;2023-04-06T00:50:48;14.07;;;6.20;;
74793;SDS011;63320;50.768;6.724;2023-04-06T00:53:13;12.98;;;6.70;;
74793;SDS011;63320;50.768;6.724;2023-04-06T00:55:39;16.00;;;7.35;;
74793;SDS011;63320;50.768;6.724;2023-04-06T00:58:05;14.93;;;7.15;;
74793;SDS011;63320;50.768;6.724;2023-04-06T01:00:31;15.68;;;6.43;;
74793;SDS011;63320;50.768;6.724;2023-04-06T01:02:57;14.75;;;6.65;;
74793;SDS011;63320;50.768;6.724;2023-04-06T01:05:22;14.13;;;6.25;;
74793;SDS011;63320;50.768;6.724;2023-04-06T01:07:48;13.38;;;6.80;;
74793;SDS011;63320;50.768;6.724;2023-04-06T01:10:22;13.15;;;6.53;;
74793;SDS011;63320;50.768;6.724;2023-04-06T01:12:48;14.50;;;6.50;;
74793;SDS011;63320;50.768;6.724;2023-04-06T01:15:14;14.18;;;6.85;;
74793;SDS011;63320;50.768;6.724;2023-04-06T01:17:40;16.10;;;7.43;;
74793;SDS011;63320;50.768;6.724;2023-04-06T01:20:06;15.05;;;7.03;;
74793;SDS011;63320;50.768;6.724;2023-04-06T01:22:33;17.15;;;7.60;;
74793;SDS011;63320;50.768;6.724;2023-04-06T01:24:59;14.30;;;6.65;;
74793;SDS011;63320;50.768;6.724;2023-04-06T01:27:24;13.48;;;6.38;;
74793;SDS011;63320;50.768;6.724;2023-04-06T01:29:50;13.68;;;6.47;;
74793;SDS011;63320;50.768;6.724;2023-04-06T01:32:15;12.35;;;5.75;;
74793;SDS011;63320;50.768;6.724;2023-04-06T01:34:40;14.43;;;6.45;;
74793;SDS011;63320;50.768;6.724;2023-04-06T01:37:06;13.98;;;6.55;;
74793;SDS011;63320;50.768;6.724;2023-04-06T01:39:32;12.68;;;6.68;;
74793;SDS011;63320;50.768;6.724;2023-04-06T01:41:58;13.32;;;6.03;;
74793;SDS011;63320;50.768;6.724;2023-04-06T01:44:23;12.43;;;6.07;;
74793;SDS011;63320;50.768;6.724;2023-04-06T01:46:49;13.55;;;6.32;;
74793;SDS011;63320;50.768;6.724;2023-04-06T01:49:14;15.38;;;6.90;;
74793;SDS011;63320;50.768;6.724;2023-04-06T01:51:39;14.35;;;6.55;;
74793;SDS011;63320;50.768;6.724;2023-04-06T01:54:05;13.63;;;6.60;;
74793;SDS011;63320;50.768;6.724;2023-04-06T01:56:31;14.73;;;6.97;;
74793;SDS011;63320;50.768;6.724;2023-04-06T01:58:57;14.23;;;6.40;;
74793;SDS011;63320;50.768;6.724;2023-04-06T02:01:22;12.75;;;6.72;;
74793;SDS011;63320;50.768;6.724;2023-04-06T02:03:48;13.82;;;6.43;;
74793;SDS011;63320;50.768;6.724;2023-04-06T02:06:13;12.50;;;6.10;;
74793;SDS011;63320;50.768;6.724;2023-04-06T02:08:38;13.40;;;6.78;;
74793;SDS011;63320;50.768;6.724;2023-04-06T02:11:04;12.35;;;6.65;;
74793;SDS011;63320;50.768;6.724;2023-04-06T02:13:30;14.70;;;6.45;;
74793;SDS011;63320;50.768;6.724;2023-04-06T02:15:56;12.00;;;6.03;;
74793;SDS011;63320;50.768;6.724;2023-04-06T02:18:21;12.98;;;6.97;;
74793;SDS011;63320;50.768;6.724;2023-04-06T02:20:47;12.25;;;6.15;;
74793;SDS011;63320;50.768;6.724;2023-04-06T02:23:12;14.13;;;6.40;;
74793;SDS011;63320;50.768;6.724;2023-04-06T02:25:38;12.05;;;6.40;;
74793;SDS011;63320;50.768;6.724;2023-04-06T02:28:03;12.68;;;6.72;;
74793;SDS011;63320;50.768;6.724;2023-04-06T02:30:30;13.95;;;6.45;;
74793;SDS011;63320;50.768;6.724;2023-04-06T02:32:55;11.98;;;6.50;;
74793;SDS011;63320;50.768;6.724;2023-04-06T02:35:21;14.18;;;6.25;;
74793;SDS011;63320;50.768;6.724;2023-04-06T02:37:46;15.70;;;7.13;;
74793;SDS011;63320;50.768;6.724;2023-04-06T02:40:12;13.90;;;6.70;;
74793;SDS011;63320;50.768;6.724;2023-04-06T02:42:38;12.55;;;6.57;;
74793;SDS011;63320;50.768;6.724;2023-04-06T02:45:04;15.57;;;7.57;;
74793;SDS011;63320;50.768;6.724;2023-04-06T02:47:32;20.52;;;7.32;;
74793;SDS011;63320;50.768;6.724;2023-04-06T02:49:57;13.55;;;7.57;;
74793;SDS011;63320;50.768;6.724;2023-04-06T02:52:23;13.95;;;6.63;;
74793;SDS011;63320;50.768;6.724;2023-04-06T02:54:48;12.75;;;6.15;;
74793;SDS011;63320;50.768;6.724;2023-04-06T02:57:14;17.85;;;6.65;;
74793;SDS011;63320;50.768;6.724;2023-04-06T02:59:39;13.48;;;6.70;;
74793;SDS011;63320;50.768;6.724;2023-04-06T03:02:04;14.95;;;6.90;;
74793;SDS011;63320;50.768;6.724;2023-04-06T03:04:31;12.38;;;6.22;;
74793;SDS011;63320;50.768;6.724;2023-04-06T03:06:56;12.60;;;6.20;;
74793;SDS011;63320;50.768;6.724;2023-04-06T03:09:22;13.70;;;6.63;;
74793;SDS011;63320;50.768;6.724;2023-04-06T03:11:47;14.18;;;6.45;;
74793;SDS011;63320;50.768;6.724;2023-04-06T03:14:13;13.82;;;6.82;;
74793;SDS011;63320;50.768;6.724;2023-04-06T03:16:38;14.23;;;7.20;;
74793;SDS011;63320;50.768;6.724;2023-04-06T03:19:03;14.52;;;6.82;;
74793;SDS011;63320;50.768;6.724;2023-04-06T03:21:30;14.02;;;7.35;;
74793;SDS011;63320;50.768;6.724;2023-04-06T03:23:55;14.00;;;6.85;;
74793;SDS011;63320;50.768;6.724;2023-04-06T03:26:21;13.68;;;7.38;;
74793;SDS011;63320;50.768;6.724;2023-04-06T03:28:46;12.65;;;6.45;;
74793;SDS011;63320;50.768;6.724;2023-04-06T03:31:12;15.20;;;7.47;;
74793;SDS011;63320;50.768;6.724;2023-04-06T03:33:37;15.05;;;6.63;;
74793;SDS011;63320;50.768;6.724;2023-04-06T03:36:03;15.57;;;7.60;;
74793;SDS011;63320;50.768;6.724;2023-04-06T03:38:30;14.38;;;7.10;;
74793;SDS011;63320;50.768;6.724;2023-04-06T03:40:55;12.48;;;7.47;;
74793;SDS011;63320;50.768;6.724;2023-04-06T03:43:21;13.80;;;6.85;;
74793;SDS011;63320;50.768;6.724;2023-04-06T03:45:46;12.55;;;6.80;;
74793;SDS011;63320;50.768;6.724;2023-04-06T03:48:12;13.85;;;7.45;;
74793;SDS011;63320;50.768;6.724;2023-04-06T03:50:37;12.70;;;6.55;;
74793;SDS011;63320;50.768;6.724;2023-04-06T03:53:02;14.23;;;7.05;;
74793;SDS011;63320;50.768;6.724;2023-04-06T03:55:29;12.40;;;6.57;;
74793;SDS011;63320;50.768;6.724;2023-04-06T03:57:54;14.23;;;7.13;;
74793;SDS011;63320;50.768;6.724;2023-04-06T04:00:20;12.82;;;6.90;;
74793;SDS011;63320;50.768;6.724;2023-04-06T04:02:45;13.55;;;6.70;;
74793;SDS011;63320;50.768;6.724;2023-04-06T04:05:11;14.15;;;6.70;;
74793;SDS011;63320;50.768;6.724;2023-04-06T04:07:36;13.73;;;6.43;;
74793;SDS011;63320;50.768;6.724;2023-04-06T04:10:02;13.02;;;7.55;;
74793;SDS011;63320;50.768;6.724;2023-04-06T04:12:29;14.25;;;7.35;;
74793;SDS011;63320;50.768;6.724;2023-04-06T04:14:54;14.30;;;6.35;;
74793;SDS011;63320;50.768;6.724;2023-04-06T04:17:21;13.60;;;7.22;;
74793;SDS011;63320;50.768;6.724;2023-04-06T04:19:46;16.30;;;7.43;;
74793;SDS011;63320;50.768;6.724;2023-04-06T04:22:11;16.48;;;8.57;;
74793;SDS011;63320;50.768;6.724;2023-04-06T04:24:37;17.15;;;8.80;;
74793;SDS011;63320;50.768;6.724;2023-04-06T04:27:03;18.23;;;9.30;;
74793;SDS011;63320;50.768;6.724;2023-04-06T04:29:29;16.40;;;7.28;;
74793;SDS011;63320;50.768;6.724;2023-04-06T04:31:55;15.63;;;8.15;;
74793;SDS011;63320;50.768;6.724;2023-04-06T04:34:20;15.65;;;6.70;;
74793;SDS011;63320;50.768;6.724;2023-04-06T04:36:45;15.27;;;7.35;;
74793;SDS011;63320;50.768;6.724;2023-04-06T04:39:11;12.98;;;6.95;;
74793;SDS011;63320;50.768;6.724;2023-04-06T04:41:36;14.77;;;6.88;;
74793;SDS011;63320;50.768;6.724;2023-04-06T04:44:02;13.73;;;7.32;;
74793;SDS011;63320;50.768;6.724;2023-04-06T04:46:28;17.60;;;9.55;;
74793;SDS011;63320;50.768;6.724;2023-04-06T04:48:54;21.52;;;9.75;;
74793;SDS011;63320;50.768;6.724;2023-04-06T04:51:19;15.50;;;7.57;;
74793;SDS011;63320;50.768;6.724;2023-04-06T04:53:45;14.88;;;7.45;;
74793;SDS011;63320;50.768;6.724;2023-04-06T04:56:10;12.07;;;6.57;;
74793;SDS011;63320;50.768;6.724;2023-04-06T04:58:35;14.45;;;7.25;;
74793;SDS011;63320;50.768;6.724;2023-04-06T05:01:01;13.57;;;7.13;;
74793;SDS011;63320;50.768;6.724;2023-04-06T05:03:28;14.05;;;8.18;;
74793;SDS011;63320;50.768;6.724;2023-04-06T05:05:53;15.65;;;7.70;;
74793;SDS011;63320;50.768;6.724;2023-04-06T05:08:19;15.65;;;8.15;;
74793;SDS011;63320;50.768;6.724;2023-04-06T05:10:44;16.55;;;8.30;;
74793;SDS011;63320;50.768;6.724;2023-04-06T05:13:09;13.65;;;7.22;;
74793;SDS011;63320;50.768;6.724;2023-04-06T05:15:35;13.80;;;6.80;;
74793;SDS011;63320;50.768;6.724;2023-04-06T05:18:01;16.00;;;7.60;;
74793;SDS011;63320;50.768;6.724;2023-04-06T05:20:27;13.70;;;7.13;;
74793;SDS011;63320;50.768;6.724;2023-04-06T05:22:53;16.20;;;7.32;;
74793;SDS011;63320;50.768;6.724;2023-04-06T05:25:18;14.93;;;7.97;;
74793;SDS011;63320;50.768;6.724;2023-04-06T05:27:44;14.77;;;7.60;;
74793;SDS011;63320;50.768;6.724;2023-04-06T05:30:10;13.25;;;7.70;;
74793;SDS011;63320;50.768;6.724;2023-04-06T05:32:35;14.82;;;7.15;;
74793;SDS011;63320;50.768;6.724;2023-04-06T05:35:01;15.85;;;7.13;;
74793;SDS011;63320;50.768;6.724;2023-04-06T05:37:28;15.77;;;7.55;;
74793;SDS011;63320;50.768;6.724;2023-04-06T05:39:53;21.02;;;8.45;;
74793;SDS011;63320;50.768;6.724;2023-04-06T05:42:19;16.63;;;7.68;;
74793;SDS011;63320;50.768;6.724;2023-04-06T05:44:44;15.35;;;7.75;;
74793;SDS011;63320;50.768;6.724;2023-04-06T05:47:09;12.07;;;6.43;;
74793;SDS011;63320;50.768;6.724;2023-04-06T05:49:35;14.85;;;7.05;;
74793;SDS011;63320;50.768;6.724;2023-04-06T05:52:00;11.50;;;6.50;;
74793;SDS011;63320;50.768;6.724;2023-04-06T05:54:27;15.27;;;6.88;;
74793;SDS011;63320;50.768;6.724;2023-04-06T05:56:53;15.15;;;7.43;;
74793;SDS011;63320;50.768;6.724;2023-04-06T05:59:18;15.50;;;6.88;;
74793;SDS011;63320;50.768;6.724;2023-04-06T06:01:43;13.88;;;6.90;;
74793;SDS011;63320;50.768;6.724;2023-04-06T06:04:09;16.33;;;7.60;;
74793;SDS011;63320;50.768;6.724;2023-04-06T06:06:34;16.10;;;8.60;;
74793;SDS011;63320;50.768;6.724;2023-04-06T06:09:00;16.98;;;7.32;;
74793;SDS011;63320;50.768;6.724;2023-04-06T06:11:26;15.88;;;8.60;;
74793;SDS011;63320;50.768;6.724;2023-04-06T06:13:52;14.73;;;8.02;;
74793;SDS011;63320;50.768;6.724;2023-04-06T06:16:18;16.75;;;8.32;;
74793;SDS011;63320;50.768;6.724;2023-04-06T06:18:43;18.25;;;8.63;;
74793;SDS011;63320;50.768;6.724;2023-04-06T06:21:09;20.42;;;8.27;;
74793;SDS011;63320;50.768;6.724;2023-04-06T06:23:34;16.75;;;7.95;;
74793;SDS011;63320;50.768;6.724;2023-04-06T06:26:00;13.43;;;7.20;;
74793;SDS011;63320;50.768;6.724;2023-04-06T06:28:27;16.90;;;7.75;;
74793;SDS011;63320;50.768;6.724;2023-04-06T06:30:52;14.32;;;7.55;;
74793;SDS011;63320;50.768;6.724;2023-04-06T06:33:17;14.75;;;8.85;;
74793;SDS011;63320;50.768;6.724;2023-04-06T06:35:43;16.10;;;8.25;;
74793;SDS011;63320;50.768;6.724;2023-04-06T06:38:08;15.05;;;8.25;;
74793;SDS011;63320;50.768;6.724;2023-04-06T06:40:33;14.77;;;7.35;;
74793;SDS011;63320;50.768;6.724;2023-04-06T06:42:59;13.05;;;7.50;;
74793;SDS011;63320;50.768;6.724;2023-04-06T06:45:26;15.25;;;7.93;;
74793;SDS011;63320;50.768;6.724;2023-04-06T06:47:51;16.42;;;7.55;;
74793;SDS011;63320;50.768;6.724;2023-04-06T06:50:17;15.15;;;7.78;;
74793;SDS011;63320;50.768;6.724;2023-04-06T06:52:42;16.13;;;7.65;;
74793;SDS011;63320;50.768;6.724;2023-04-06T06:55:08;18.77;;;8.48;;
74793;SDS011;63320;50.768;6.724;2023-04-06T06:57:34;20.38;;;8.52;;
74793;SDS011;63320;50.768;6.724;2023-04-06T07:00:00;15.48;;;7.70;;
74793;SDS011;63320;50.768;6.724;2023-04-06T07:02:26;16.50;;;7.72;;
74793;SDS011;63320;50.768;6.724;2023-04-06T07:04:52;14.98;;;7.75;;
74793;SDS011;63320;50.768;6.724;2023-04-06T07:07:17;19.27;;;8.30;;
74793;SDS011;63320;50.768;6.724;2023-04-06T07:09:42;16.25;;;8.30;;
74793;SDS011;63320;50.768;6.724;2023-04-06T07:12:08;16.00;;;8.80;;
74793;SDS011;63320;50.768;6.724;2023-04-06T07:14:33;14.32;;;9.13;;
74793;SDS011;63320;50.768;6.724;2023-04-06T07:16:59;15.63;;;8.60;;
74793;SDS011;63320;50.768;6.724;2023-04-06T07:19:25;16.73;;;8.60;;
74793;SDS011;63320;50.768;6.724;2023-04-06T07:21:51;15.63;;;8.90;;
74793;SDS011;63320;50.768;6.724;2023-04-06T07:24:16;18.00;;;9.48;;
74793;SDS011;63320;50.768;6.724;2023-04-06T07:26:42;18.50;;;9.65;;
74793;SDS011;63320;50.768;6.724;2023-04-06T07:29:07;17.73;;;9.05;;
74793;SDS011;63320;50.768;6.724;2023-04-06T07:31:33;16.02;;;8.77;;
74793;SDS011;63320;50.768;6.724;2023-04-06T07:33:58;18.83;;;8.55;;
74793;SDS011;63320;50.768;6.724;2023-04-06T07:36:25;15.38;;;8.73;;
74793;SDS011;63320;50.768;6.724;2023-04-06T07:38:50;18.20;;;7.90;;
74793;SDS011;63320;50.768;6.724;2023-04-06T07:41:15;18.08;;;9.05;;
74793;SDS011;63320;50.768;6.724;2023-04-06T07:43:41;15.70;;;8.52;;
74793;SDS011;63320;50.768;6.724;2023-04-06T07:46:06;17.33;;;8.32;;
74793;SDS011;63320;50.768;6.724;2023-04-06T07:48:32;16.08;;;8.57;;
74793;SDS011;63320;50.768;6.724;2023-04-06T07:51:00;16.60;;;9.18;;
74793;SDS011;63320;50.768;6.724;2023-04-06T07:53:28;18.50;;;10.10;;
74793;SDS011;63320;50.768;6.724;2023-04-06T07:55:53;18.40;;;10.18;;
74793;SDS011;63320;50.768;6.724;2023-04-06T07:58:19;18.83;;;9.80;;
74793;SDS011;63320;50.768;6.724;2023-04-06T08:00:44;19.67;;;10.75;;
74793;SDS011;63320;50.768;6.724;2023-04-06T08:03:09;21.73;;;10.82;;
74793;SDS011;63320;50.768;6.724;2023-04-06T08:05:35;22.25;;;10.50;;
74793;SDS011;63320;50.768;6.724;2023-04-06T08:08:00;25.25;;;11.02;;
74793;SDS011;63320;50.768;6.724;2023-04-06T08:10:27;17.35;;;8.48;;
74793;SDS011;63320;50.768;6.724;2023-04-06T08:12:52;16.30;;;8.50;;
74793;SDS011;63320;50.768;6.724;2023-04-06T08:15:18;19.67;;;8.23;;
74793;SDS011;63320;50.768;6.724;2023-04-06T08:17:43;17.98;;;8.50;;
74793;SDS011;63320;50.768;6.724;2023-04-06T08:20:09;18.23;;;8.02;;
74793;SDS011;63320;50.768;6.724;2023-04-06T08:22:35;16.30;;;8.02;;
74793;SDS011;63320;50.768;6.724;2023-04-06T08:25:00;15.30;;;7.15;;
74793;SDS011;63320;50.768;6.724;2023-04-06T08:27:27;15.95;;;8.40;;
74793;SDS011;63320;50.768;6.724;2023-04-06T08:29:52;18.08;;;8.25;;
74793;SDS011;63320;50.768;6.724;2023-04-06T08:32:17;16.35;;;8.05;;
74793;SDS011;63320;50.768;6.724;2023-04-06T08:34:43;17.60;;;8.05;;
74793;SDS011;63320;50.768;6.724;2023-04-06T08:37:08;17.65;;;7.85;;
74793;SDS011;63320;50.768;6.724;2023-04-06T08:39:34;17.00;;;7.75;;
74793;SDS011;63320;50.768;6.724;2023-04-06T08:41:59;15.73;;;7.22;;
74793;SDS011;63320;50.768;6.724;2023-04-06T08:44:27;15.68;;;7.55;;
74793;SDS011;63320;50.768;6.724;2023-04-06T08:46:52;17.50;;;7.25;;
74793;SDS011;63320;50.768;6.724;2023-04-06T08:49:18;17.15;;;7.32;;
74793;SDS011;63320;50.768;6.724;2023-04-06T08:51:43;20.95;;;7.47;;
74793;SDS011;63320;50.768;6.724;2023-04-06T08:54:09;15.85;;;7.22;;
74793;SDS011;63320;50.768;6.724;2023-04-06T08:56:36;18.63;;;7.43;;
74793;SDS011;63320;50.768;6.724;2023-04-06T08:59:02;17.67;;;7.40;;
74793;SDS011;63320;50.768;6.724;2023-04-06T09:01:29;15.82;;;7.25;;
74793;SDS011;63320;50.768;6.724;2023-04-06T09:03:58;15.75;;;7.63;;
74793;SDS011;63320;50.768;6.724;2023-04-06T09:06:24;15.82;;;7.55;;
74793;SDS011;63320;50.768;6.724;2023-04-06T09:08:51;16.20;;;7.47;;
74793;SDS011;63320;50.768;6.724;2023-04-06T09:11:16;15.63;;;6.72;;
74793;SDS011;63320;50.768;6.724;2023-04-06T09:13:45;15.57;;;7.07;;
74793;SDS011;63320;50.768;6.724;2023-04-06T09:16:12;18.23;;;7.65;;
74793;SDS011;63320;50.768;6.724;2023-04-06T09:18:39;14.65;;;6.70;;
74793;SDS011;63320;50.768;6.724;2023-04-06T09:21:05;17.98;;;6.85;;
74793;SDS011;63320;50.768;6.724;2023-04-06T09:23:31;15.05;;;6.80;;
74793;SDS011;63320;50.768;6.724;2023-04-06T09:26:07;16.85;;;7.15;;
74793;SDS011;63320;50.768;6.724;2023-04-06T09:31:21;15.95;;;7.05;;
74793;SDS011;63320;50.768;6.724;2023-04-06T09:33:50;16.10;;;7.15;;
74793;SDS011;63320;50.768;6.724;2023-04-06T09:36:15;16.23;;;6.97;;
74793;SDS011;63320;50.768;6.724;2023-04-06T09:38:51;17.08;;;7.63;;
74793;SDS011;63320;50.768;6.724;2023-04-06T09:43:45;17.83;;;7.13;;
74793;SDS011;63320;50.768;6.724;2023-04-06T09:46:11;18.48;;;7.50;;
74793;SDS011;63320;50.768;6.724;2023-04-06T09:48:37;17.80;;;7.00;;
74793;SDS011;63320;50.768;6.724;2023-04-06T09:51:04;16.95;;;7.85;;
74793;SDS011;63320;50.768;6.724;2023-04-06T09:53:31;17.27;;;8.10;;
74793;SDS011;63320;50.768;6.724;2023-04-06T09:56:03;18.55;;;7.55;;
74793;SDS011;63320;50.768;6.724;2023-04-06T09:58:34;16.13;;;7.97;;
74793;SDS011;63320;50.768;6.724;2023-04-06T10:01:03;16.40;;;7.75;;
74793;SDS011;63320;50.768;6.724;2023-04-06T10:03:34;17.20;;;7.25;;
74793;SDS011;63320;50.768;6.724;2023-04-06T10:06:10;18.60;;;8.02;;
74793;SDS011;63320;50.768;6.724;2023-04-06T10:08:38;18.50;;;7.35;;
74793;SDS011;63320;50.768;6.724;2023-04-06T10:11:05;16.13;;;7.60;;
74793;SDS011;63320;50.768;6.724;2023-04-06T10:13:32;18.90;;;7.35;;
74793;SDS011;63320;50.768;6.724;2023-04-06T10:15:58;18.10;;;7.40;;
74793;SDS011;63320;50.768;6.724;2023-04-06T10:18:25;19.65;;;7.70;;
74793;SDS011;63320;50.768;6.724;2023-04-06T10:20:51;16.70;;;8.13;;
74793;SDS011;63320;50.768;6.724;2023-04-06T10:23:23;16.90;;;7.55;;
74793;SDS011;63320;50.768;6.724;2023-04-06T10:25:55;18.30;;;7.80;;
74793;SDS011;63320;50.768;6.724;2023-04-06T10:28:21;17.83;;;7.45;;
74793;SDS011;63320;50.768;6.724;2023-04-06T10:30:47;16.48;;;7.47;;
74793;SDS011;63320;50.768;6.724;2023-04-06T10:33:13;18.77;;;8.20;;
74793;SDS011;63320;50.768;6.724;2023-04-06T10:35:38;16.25;;;7.82;;
74793;SDS011;63320;50.768;6.724;2023-04-06T10:38:04;17.20;;;7.35;;
74793;SDS011;63320;50.768;6.724;2023-04-06T10:40:31;17.65;;;8.02;;
74793;SDS011;63320;50.768;6.724;2023-04-06T10:43:06;18.35;;;7.85;;
74793;SDS011;63320;50.768;6.724;2023-04-06T10:45:33;16.90;;;6.90;;
74793;SDS011;63320;50.768;6.724;2023-04-06T10:47:59;19.92;;;7.50;;
74793;SDS011;63320;50.768;6.724;2023-04-06T10:50:24;14.82;;;7.07;;
74793;SDS011;63320;50.768;6.724;2023-04-06T10:52:58;17.50;;;7.60;;
74793;SDS011;63320;50.768;6.724;2023-04-06T10:55:25;20.70;;;8.48;;
74793;SDS011;63320;50.768;6.724;2023-04-06T10:57:52;16.55;;;8.25;;
74793;SDS011;63320;50.768;6.724;2023-04-06T11:00:18;18.63;;;8.13;;
74793;SDS011;63320;50.768;6.724;2023-04-06T11:02:44;17.52;;;9.02;;
74793;SDS011;63320;50.768;6.724;2023-04-06T11:05:11;17.90;;;8.70;;
74793;SDS011;63320;50.768;6.724;2023-04-06T11:07:37;17.85;;;8.43;;
74793;SDS011;63320;50.768;6.724;2023-04-06T11:10:04;17.15;;;8.35;;
74793;SDS011;63320;50.768;6.724;2023-04-06T11:12:30;20.38;;;8.80;;
74793;SDS011;63320;50.768;6.724;2023-04-06T11:14:57;19.17;;;8.70;;
74793;SDS011;63320;50.768;6.724;2023-04-06T11:17:26;17.88;;;8.55;;
74793;SDS011;63320;50.768;6.724;2023-04-06T11:19:52;17.40;;;7.97;;
74793;SDS011;63320;50.768;6.724;2023-04-06T11:22:18;17.67;;;8.05;;
74793;SDS011;63320;50.768;6.724;2023-04-06T11:24:43;19.50;;;8.32;;
74793;SDS011;63320;50.768;6.724;2023-04-06T11:27:08;17.52;;;8.82;;
74793;SDS011;63320;50.768;6.724;2023-04-06T11:29:34;18.98;;;9.45;;
74793;SDS011;63320;50.768;6.724;2023-04-06T11:32:01;17.02;;;8.82;;
74793;SDS011;63320;50.768;6.724;2023-04-06T11:34:29;18.33;;;8.40;;
74793;SDS011;63320;50.768;6.724;2023-04-06T11:36:56;14.65;;;7.63;;
74793;SDS011;63320;50.768;6.724;2023-04-06T11:39:23;16.90;;;7.28;;
74793;SDS011;63320;50.768;6.724;2023-04-06T11:41:49;14.20;;;6.40;;
74793;SDS011;63320;50.768;6.724;2023-04-06T11:44:26;16.77;;;7.93;;
74793;SDS011;63320;50.768;6.724;2023-04-06T11:46:54;13.57;;;6.85;;
74793;SDS011;63320;50.768;6.724;2023-04-06T11:49:26;12.60;;;6.90;;
74793;SDS011;63320;50.768;6.724;2023-04-06T11:51:51;13.35;;;6.97;;
74793;SDS011;63320;50.768;6.724;2023-04-06T11:54:17;12.20;;;6.80;;
74793;SDS011;63320;50.768;6.724;2023-04-06T11:56:45;15.82;;;7.30;;
74793;SDS011;63320;50.768;6.724;2023-04-06T11:59:11;13.50;;;6.80;;
74793;SDS011;63320;50.768;6.724;2023-04-06T12:01:44;13.98;;;6.88;;
74793;SDS011;63320;50.768;6.724;2023-04-06T12:04:09;11.75;;;6.38;;
74793;SDS011;63320;50.768;6.724;2023-04-06T12:06:36;13.32;;;6.50;;
74793;SDS011;63320;50.768;6.724;2023-04-06T12:09:02;14.15;;;6.72;;
74793;SDS011;63320;50.768;6.724;2023-04-06T12:11:27;11.90;;;6.65;;
74793;SDS011;63320;50.768;6.724;2023-04-06T12:13:53;12.23;;;6.25;;
74793;SDS011;63320;50.768;6.724;2023-04-06T12:16:18;12.05;;;6.22;;
74793;SDS011;63320;50.768;6.724;2023-04-06T12:18:43;13.60;;;6.60;;
74793;SDS011;63320;50.768;6.724;2023-04-06T12:21:09;10.55;;;5.75;;
74793;SDS011;63320;50.768;6.724;2023-04-06T12:23:36;11.05;;;5.55;;
74793;SDS011;63320;50.768;6.724;2023-04-06T12:26:01;15.93;;;5.95;;
74793;SDS011;63320;50.768;6.724;2023-04-06T12:28:27;11.23;;;5.55;;
74793;SDS011;63320;50.768;6.724;2023-04-06T12:30:53;11.30;;;5.57;;
74793;SDS011;63320;50.768;6.724;2023-04-06T12:33:18;12.52;;;5.63;;
74793;SDS011;63320;50.768;6.724;2023-04-06T12:35:44;12.10;;;5.63;;
74793;SDS011;63320;50.768;6.724;2023-04-06T12:38:09;13.77;;;6.80;;
74793;SDS011;63320;50.768;6.724;2023-04-06T12:40:37;14.50;;;6.00;;
74793;SDS011;63320;50.768;6.724;2023-04-06T12:43:03;11.73;;;6.32;;
74793;SDS011;63320;50.768;6.724;2023-04-06T12:45:29;10.95;;;5.32;;
74793;SDS011;63320;50.768;6.724;2023-04-06T12:47:55;12.70;;;5.75;;
74793;SDS011;63320;50.768;6.724;2023-04-06T12:50:20;12.45;;;5.63;;
74793;SDS011;63320;50.768;6.724;2023-04-06T12:52:46;12.02;;;6.13;;
74793;SDS011;63320;50.768;6.724;2023-04-06T12:55:12;12.48;;;6.07;;
74793;SDS011;63320;50.768;6.724;2023-04-06T12:57:39;13.57;;;6.32;;
74793;SDS011;63320;50.768;6.724;2023-04-06T13:00:05;13.85;;;6.95;;
74793;SDS011;63320;50.768;6.724;2023-04-06T13:02:31;13.52;;;7.03;;
74793;SDS011;63320;50.768;6.724;2023-04-06T13:04:57;13.65;;;7.10;;
74793;SDS011;63320;50.768;6.724;2023-04-06T13:07:22;13.10;;;6.15;;
74793;SDS011;63320;50.768;6.724;2023-04-06T13:09:47;11.75;;;6.15;;
74793;SDS011;63320;50.768;6.724;2023-04-06T13:12:13;14.10;;;6.55;;
74793;SDS011;63320;50.768;6.724;2023-04-06T13:14:40;14.68;;;7.07;;
74793;SDS011;63320;50.768;6.724;2023-04-06T13:17:05;14.60;;;7.53;;
74793;SDS011;63320;50.768;6.724;2023-04-06T13:19:30;16.45;;;8.65;;
74793;SDS011;63320;50.768;6.724;2023-04-06T13:21:56;14.13;;;7.38;;
74793;SDS011;63320;50.768;6.724;2023-04-06T13:24:21;18.58;;;8.00;;
74793;SDS011;63320;50.768;6.724;2023-04-06T13:26:47;15.90;;;7.55;;
74793;SDS011;63320;50.768;6.724;2023-04-06T13:29:12;16.90;;;7.80;;
74793;SDS011;63320;50.768;6.724;2023-04-06T13:31:39;15.95;;;8.32;;
74793;SDS011;63320;50.768;6.724;2023-04-06T13:34:04;13.90;;;7.72;;
74793;SDS011;63320;50.768;6.724;2023-04-06T13:36:30;12.32;;;6.57;;
74793;SDS011;63320;50.768;6.724;2023-04-06T13:38:55;11.30;;;6.32;;
74793;SDS011;63320;50.768;6.724;2023-04-06T13:41:21;12.05;;;6.40;;
74793;SDS011;63320;50.768;6.724;2023-04-06T13:43:47;10.70;;;6.25;;
74793;SDS011;63320;50.768;6.724;2023-04-06T13:46:13;10.85;;;6.50;;
74793;SDS011;63320;50.768;6.724;2023-04-06T13:48:40;11.32;;;6.43;;
74793;SDS011;63320;50.768;6.724;2023-04-06T13:51:08;11.88;;;5.32;;
74793;SDS011;63320;50.768;6.724;2023-04-06T13:53:34;10.18;;;5.40;;
74793;SDS011;63320;50.768;6.724;2023-04-06T13:55:59;8.57;;;4.57;;
74793;SDS011;63320;50.768;6.724;2023-04-06T13:58:25;10.50;;;5.40;;
74793;SDS011;63320;50.768;6.724;2023-04-06T14:00:50;9.40;;;4.90;;
74793;SDS011;63320;50.768;6.724;2023-04-06T14:03:15;11.55;;;5.50;;
74793;SDS011;63320;50.768;6.724;2023-04-06T14:05:42;10.13;;;5.53;;
74793;SDS011;63320;50.768;6.724;2023-04-06T14:08:07;12.23;;;5.70;;
74793;SDS011;63320;50.768;6.724;2023-04-06T14:10:36;12.90;;;6.05;;
74793;SDS011;63320;50.768;6.724;2023-04-06T14:13:02;10.68;;;5.80;;
74793;SDS011;63320;50.768;6.724;2023-04-06T14:15:27;9.82;;;5.57;;
74793;SDS011;63320;50.768;6.724;2023-04-06T14:17:52;11.20;;;5.75;;
74793;SDS011;63320;50.768;6.724;2023-04-06T14:20:18;12.70;;;5.80;;
74793;SDS011;63320;50.768;6.724;2023-04-06T14:22:45;11.00;;;6.35;;
74793;SDS011;63320;50.768;6.724;2023-04-06T14:25:10;15.38;;;6.95;;
74793;SDS011;63320;50.768;6.724;2023-04-06T14:27:36;10.73;;;6.15;;
74793;SDS011;63320;50.768;6.724;2023-04-06T14:30:01;13.38;;;6.97;;
74793;SDS011;63320;50.768;6.724;2023-04-06T14:32:27;11.70;;;6.72;;